Time;durP1;ratioP1;P1;durP2;ratioP2;P2;SDS_P1;SDS_P2;PMS_P1;PMS_P2;Temp;Humidity;BMP_temperature;BMP_pressure;BME280_temperature;BME280_humidity;BME280_pressure;Samples;Min_cycle;Max_cycle;Signal;HPM_P1;HPM_P2
2022/09/14 00:01:35;;;;;;;2.13;1.77;;;23.50;92.10;;;;;;4962555;28;20425;-71
2022/09/14 00:04:15;;;;;;;2.20;1.70;;;23.50;92.10;;;;;;4978464;28;20445;-71
2022/09/14 00:06:45;;;;;;;1.97;1.23;;;23.50;92.10;;;;;;4995594;28;20441;-71
2022/09/14 00:09:18;;;;;;;1.77;1.67;;;23.50;92.10;;;;;;4977935;28;20436;-71
2022/09/14 00:11:47;;;;;;;2.17;1.70;;;23.50;92.10;;;;;;4962575;28;20520;-71
2022/09/14 00:14:17;;;;;;;2.00;1.50;;;23.40;92.00;;;;;;4995011;28;20455;-71
2022/09/14 00:16:43;;;;;;;1.90;1.20;;;23.50;92.10;;;;;;4995528;28;20405;-71
2022/09/14 00:19:25;;;;;;;3.43;1.50;;;23.40;92.00;;;;;;4995292;28;20977;-71
2022/09/14 00:21:54;;;;;;;2.63;1.73;;;23.40;92.00;;;;;;4977943;28;20405;-71
2022/09/14 00:24:24;;;;;;;1.60;1.50;;;23.40;92.00;;;;;;4995331;28;20422;-71
2022/09/14 00:26:50;;;;;;;3.40;1.70;;;23.40;92.00;;;;;;4961944;28;20498;-72
2022/09/14 00:29:17;;;;;;;1.83;1.50;;;23.40;92.00;;;;;;4945947;28;20433;-71
2022/09/14 00:31:44;;;;;;;2.40;1.80;;;23.40;92.00;;;;;;4977902;28;20398;-71
2022/09/14 00:34:13;;;;;;;1.27;1.20;;;23.40;92.00;;;;;;4994894;28;20453;-71
2022/09/14 00:36:50;;;;;;;2.10;1.70;;;23.40;92.00;;;;;;4962196;28;20418;-71
2022/09/14 00:39:22;;;;;;;1.60;1.40;;;23.30;91.90;;;;;;4994912;28;20472;-71
2022/09/14 00:41:53;;;;;;;1.70;1.50;;;23.30;91.90;;;;;;4975378;28;20438;-71
2022/09/14 00:44:19;;;;;;;4.10;1.90;;;23.30;91.90;;;;;;4996876;28;20822;-71
2022/09/14 00:46:51;;;;;;;1.77;1.67;;;23.30;91.90;;;;;;4997098;28;20397;-71
2022/09/14 00:49:34;;;;;;;2.13;1.63;;;23.30;91.90;;;;;;4981148;28;20426;-71
2022/09/14 00:52:24;;;;;;;4.00;1.77;;;23.30;91.90;;;;;;4996075;28;20911;-71
2022/09/14 00:54:55;;;;;;;3.53;1.67;;;23.30;91.90;;;;;;5012348;28;20792;-71
2022/09/14 00:57:25;;;;;;;1.33;1.23;;;23.30;91.90;;;;;;4978676;28;20421;-71
2022/09/14 00:59:55;;;;;;;2.00;1.47;;;23.30;91.90;;;;;;4976767;28;20641;-71
2022/09/14 01:02:25;;;;;;;2.00;1.70;;;23.20;91.80;;;;;;4958787;28;20428;-71
2022/09/14 01:04:55;;;;;;;2.43;1.50;;;23.20;91.80;;;;;;4982206;28;20455;-71
2022/09/14 01:08:08;;;;;;;2.10;1.63;;;23.20;91.80;;;;;;4980102;28;20475;-71
2022/09/14 01:10:49;;;;;;;1.47;1.37;;;23.20;91.80;;;;;;4996980;28;20514;-71
2022/09/14 01:13:41;;;;;;;4.03;1.60;;;23.20;91.80;;;;;;5014117;28;20444;-71
2022/09/14 01:16:13;;;;;;;2.87;1.40;;;23.20;91.80;;;;;;4975847;28;20520;-71
2022/09/14 01:18:55;;;;;;;5.47;1.80;;;23.20;91.80;;;;;;5013475;28;20451;-71
2022/09/14 01:21:25;;;;;;;1.80;1.47;;;23.20;91.80;;;;;;4996247;28;20432;-71
2022/09/14 01:23:58;;;;;;;2.40;1.50;;;23.10;91.70;;;;;;5013815;28;20409;-71
2022/09/14 01:26:30;;;;;;;2.77;1.50;;;23.10;91.70;;;;;;5012600;28;20969;-71
2022/09/14 01:29:07;;;;;;;2.40;1.50;;;23.10;91.70;;;;;;4996553;28;20527;-71
2022/09/14 01:31:51;;;;;;;3.93;1.50;;;23.10;92.10;;;;;;4996371;28;20424;-71
2022/09/14 01:34:39;;;;;;;2.60;1.43;;;23.10;91.70;;;;;;4996589;28;20983;-71
2022/09/14 01:37:16;;;;;;;3.10;1.47;;;23.10;91.70;;;;;;5012862;28;20408;-71
2022/09/14 01:39:46;;;;;;;2.13;1.33;;;23.10;91.70;;;;;;4996005;28;20479;-71
2022/09/14 01:42:19;;;;;;;2.83;1.70;;;23.10;91.70;;;;;;4971657;28;20460;-71
2022/09/14 01:44:56;;;;;;;2.00;1.60;;;23.00;91.60;;;;;;5013433;28;20522;-71
2022/09/14 01:47:34;;;;;;;1.87;1.23;;;23.00;91.60;;;;;;5013622;28;20419;-71
2022/09/14 01:50:14;;;;;;;2.30;1.57;;;23.00;91.60;;;;;;4996135;28;20416;-71
2022/09/14 01:52:51;;;;;;;2.70;1.60;;;23.00;91.60;;;;;;4980432;28;20475;-71
2022/09/14 01:55:26;;;;;;;2.23;1.50;;;23.00;91.60;;;;;;4979804;28;20418;-71
2022/09/14 01:58:09;;;;;;;3.70;1.67;;;23.00;91.60;;;;;;4996164;28;20454;-71
2022/09/14 02:00:44;;;;;;;3.23;1.80;;;23.00;91.60;;;;;;4996345;28;20456;-71
2022/09/14 02:03:22;;;;;;;4.30;1.40;;;23.00;91.60;;;;;;4996254;28;20926;-71
2022/09/14 02:06:15;;;;;;;3.23;1.70;;;23.00;91.60;;;;;;4995765;28;20820;-71
2022/09/14 02:08:44;;;;;;;2.30;1.27;;;22.90;91.60;;;;;;4979214;28;20440;-71
2022/09/14 02:11:10;;;;;;;2.13;1.40;;;22.90;91.60;;;;;;4996277;28;20469;-71
2022/09/14 02:13:38;;;;;;;1.97;1.63;;;22.90;91.60;;;;;;4998701;28;20479;-71
2022/09/14 02:16:06;;;;;;;1.93;1.20;;;22.90;91.90;;;;;;5017349;28;20530;-71
2022/09/14 02:18:32;;;;;;;3.37;1.57;;;22.90;91.60;;;;;;4999747;28;20980;-71
2022/09/14 02:21:06;;;;;;;2.60;1.80;;;22.90;91.50;;;;;;5017540;28;20204;-71
2022/09/14 02:23:37;;;;;;;2.13;1.50;;;22.90;91.50;;;;;;5016866;28;20430;-73
2022/09/14 02:26:06;;;;;;;2.70;1.33;;;22.90;91.50;;;;;;5016884;28;20408;-72
2022/09/14 02:28:37;;;;;;;2.60;1.70;;;22.90;91.50;;;;;;4999358;28;20759;-71
2022/09/14 02:31:21;;;;;;;3.80;1.30;;;22.90;91.50;;;;;;4999272;28;20465;-71
2022/09/14 02:34:14;;;;;;;2.20;1.50;;;22.80;91.50;;;;;;4999177;28;20408;-71
2022/09/14 02:37:16;;;;;;;3.53;1.60;;;22.80;91.50;;;;;;4999004;28;20501;-71
2022/09/14 02:40:04;;;;;;;2.20;1.40;;;22.80;91.50;;;;;;4992942;28;20483;-71
2022/09/14 02:42:38;;;;;;;2.80;1.70;;;22.80;91.60;;;;;;5000012;28;20466;-71
2022/09/14 02:45:19;;;;;;;1.83;1.50;;;22.70;91.60;;;;;;4980584;28;20973;-71
2022/09/14 02:48:12;;;;;;;2.53;1.50;;;22.70;91.60;;;;;;4979908;28;20470;-71
2022/09/14 02:51:11;;;;;;;3.30;1.63;;;22.70;91.60;;;;;;4960440;28;20939;-71
2022/09/14 02:54:09;;;;;;;3.60;1.43;;;22.70;91.70;;;;;;4944558;28;20436;-71
2022/09/14 02:56:38;;;;;;;5.37;1.40;;;22.70;91.70;;;;;;4926146;28;20438;-71
2022/09/14 02:59:06;;;;;;;3.27;1.43;;;22.70;91.70;;;;;;4951596;28;20456;-71
2022/09/14 03:01:37;;;;;;;2.07;1.70;;;22.70;91.80;;;;;;4996851;28;20913;-71
2022/09/14 03:04:03;;;;;;;3.57;1.80;;;22.70;91.80;;;;;;4979792;28;20454;-71
2022/09/14 03:06:29;;;;;;;3.00;1.57;;;22.70;91.80;;;;;;4996910;28;20779;-71
2022/09/14 03:08:55;;;;;;;3.83;1.63;;;22.70;91.80;;;;;;4978587;28;21050;-71
2022/09/14 03:11:23;;;;;;;2.10;1.53;;;22.60;91.80;;;;;;4996743;28;20519;-71
2022/09/14 03:13:49;;;;;;;1.93;1.50;;;22.60;91.80;;;;;;4947545;28;20419;-71
2022/09/14 03:16:26;;;;;;;3.03;1.63;;;22.60;91.80;;;;;;4979483;28;20428;-71
2022/09/14 03:18:52;;;;;;;1.67;1.30;;;22.60;91.80;;;;;;4963251;28;20989;-71
2022/09/14 03:21:22;;;;;;;3.90;1.93;;;22.60;91.80;;;;;;4963428;28;20421;-71
2022/09/14 03:23:54;;;;;;;4.00;1.53;;;22.60;91.80;;;;;;4982292;28;20442;-71
2022/09/14 03:26:27;;;;;;;4.93;1.60;;;22.60;91.80;;;;;;4998678;28;20423;-71
2022/09/14 03:29:00;;;;;;;3.63;1.53;;;22.50;91.80;;;;;;4999381;28;20854;-71
2022/09/14 03:31:32;;;;;;;4.17;1.47;;;22.60;91.80;;;;;;5015006;28;20419;-71
2022/09/14 03:34:00;;;;;;;2.87;1.93;;;22.50;91.80;;;;;;4990942;28;20454;-71
2022/09/14 03:36:28;;;;;;;5.00;1.87;;;22.50;91.80;;;;;;4979045;28;20420;-71
2022/09/14 03:39:00;;;;;;;2.47;1.43;;;22.50;91.80;;;;;;4946706;28;20465;-71
2022/09/14 03:41:27;;;;;;;6.10;1.63;;;22.50;91.80;;;;;;4978969;28;20462;-71
2022/09/14 03:43:55;;;;;;;2.37;1.40;;;22.50;92.00;;;;;;4978933;28;20467;-71
2022/09/14 03:46:27;;;;;;;3.00;1.57;;;22.50;91.80;;;;;;4963239;28;20414;-71
2022/09/14 03:48:55;;;;;;;2.60;1.47;;;22.50;91.80;;;;;;4943779;28;20456;-71
2022/09/14 03:51:22;;;;;;;5.03;2.00;;;22.50;91.80;;;;;;4975546;28;20782;-71
2022/09/14 03:53:50;;;;;;;2.80;1.50;;;22.40;91.80;;;;;;4959825;28;20418;-71
2022/09/14 03:56:20;;;;;;;2.60;1.50;;;22.40;91.80;;;;;;4959338;28;20465;-71
2022/09/14 03:58:47;;;;;;;4.13;1.60;;;22.40;91.80;;;;;;4927412;28;20465;-71
2022/09/14 04:01:19;;;;;;;2.30;1.37;;;22.40;91.80;;;;;;4959285;28;20422;-71
2022/09/14 04:03:46;;;;;;;2.00;1.47;;;22.40;91.90;;;;;;4959052;28;20402;-71
2022/09/14 04:06:15;;;;;;;2.70;1.50;;;22.40;91.90;;;;;;4959327;28;20421;-71
2022/09/14 04:08:48;;;;;;;3.00;1.50;;;22.40;91.90;;;;;;4976217;28;20441;-71
2022/09/14 04:11:18;;;;;;;2.77;1.50;;;22.40;91.90;;;;;;4959403;28;20429;-71
2022/09/14 04:13:50;;;;;;;3.00;1.40;;;22.40;91.90;;;;;;4942350;28;20464;-71
2022/09/14 04:16:22;;;;;;;3.00;1.80;;;22.30;91.80;;;;;;4959066;28;20418;-71
2022/09/14 04:18:48;;;;;;;5.17;1.83;;;22.30;91.80;;;;;;4942908;28;20467;-71
2022/09/14 04:21:16;;;;;;;4.07;1.77;;;22.30;91.80;;;;;;4942805;28;20954;-71
2022/09/14 04:23:45;;;;;;;2.27;1.60;;;22.30;91.80;;;;;;4958974;28;20839;-71
2022/09/14 04:26:13;;;;;;;2.20;1.43;;;22.30;91.90;;;;;;4958946;28;20505;-71
2022/09/14 04:28:41;;;;;;;3.60;1.60;;;22.30;91.90;;;;;;4958956;28;20938;-71
2022/09/14 04:31:11;;;;;;;2.17;1.40;;;22.30;91.90;;;;;;4976503;28;20423;-71
2022/09/14 04:33:43;;;;;;;3.43;1.70;;;22.30;91.90;;;;;;4957901;28;20438;-71
2022/09/14 04:36:10;;;;;;;2.60;1.30;;;22.30;91.90;;;;;;4942723;28;20422;-71
2022/09/14 04:38:39;;;;;;;2.70;1.50;;;22.30;91.90;;;;;;4983280;28;20843;-71
2022/09/14 04:41:13;;;;;;;3.93;2.03;;;22.20;91.90;;;;;;4997271;28;20922;-71
2022/09/14 04:43:40;;;;;;;3.07;1.50;;;22.20;91.90;;;;;;4981100;28;20486;-71
2022/09/14 04:46:15;;;;;;;2.40;1.40;;;22.20;91.90;;;;;;5014590;28;20439;-73
2022/09/14 04:48:43;;;;;;;3.73;1.87;;;22.20;91.90;;;;;;4968292;28;20428;-72
2022/09/14 04:51:15;;;;;;;3.10;1.60;;;22.20;91.90;;;;;;4977518;28;20437;-71
2022/09/14 04:53:42;;;;;;;4.07;1.67;;;22.20;92.00;;;;;;4977653;28;20474;-71
2022/09/14 04:56:10;;;;;;;2.40;1.70;;;22.20;92.00;;;;;;4961567;28;20431;-71
2022/09/14 04:58:41;;;;;;;4.60;1.80;;;22.20;92.00;;;;;;4944978;28;20457;-71
2022/09/14 05:01:12;;;;;;;2.03;1.53;;;22.20;92.00;;;;;;4961541;28;20958;-71
2022/09/14 05:03:40;;;;;;;3.47;1.83;;;22.10;91.90;;;;;;4994185;28;20804;-70
2022/09/14 05:06:15;;;;;;;2.43;1.60;;;22.10;91.90;;;;;;4976960;28;20515;-72
2022/09/14 05:08:44;;;;;;;6.20;1.63;;;22.10;92.00;;;;;;4994832;28;20416;-72
2022/09/14 05:11:20;;;;;;;1.50;1.30;;;22.10;92.00;;;;;;4976863;28;20458;-70
2022/09/14 05:13:49;;;;;;;3.43;1.80;;;22.10;92.00;;;;;;4976902;28;20425;-72
2022/09/14 05:16:23;;;;;;;2.67;1.33;;;22.10;92.10;;;;;;4977333;28;20425;-71
2022/09/14 05:18:52;;;;;;;3.43;1.90;;;22.10;92.10;;;;;;4960834;28;20465;-71
2022/09/14 05:21:45;;;;;;;2.90;1.40;;;22.00;92.00;;;;;;4954170;28;20458;-71
2022/09/14 05:24:14;;;;;;;6.30;2.17;;;22.00;92.00;;;;;;4977045;28;21104;-71
2022/09/14 05:26:43;;;;;;;1.70;1.60;;;22.00;92.10;;;;;;4994297;28;20442;-71
2022/09/14 05:29:15;;;;;;;3.20;1.80;;;22.00;92.00;;;;;;4994270;28;20416;-71
2022/09/14 05:32:02;;;;;;;2.10;1.67;;;22.00;92.00;;;;;;4965913;28;20436;-71
2022/09/14 05:34:30;;;;;;;2.50;1.47;;;22.00;92.00;;;;;;4976865;28;20457;-72
2022/09/14 05:36:56;;;;;;;3.97;1.50;;;22.00;92.10;;;;;;4960514;28;20474;-71
2022/09/14 05:39:27;;;;;;;3.00;1.90;;;22.00;92.00;;;;;;4961126;28;20496;-73
2022/09/14 05:41:53;;;;;;;3.10;1.67;;;21.90;92.00;;;;;;4976773;28;20445;-71
2022/09/14 05:44:19;;;;;;;2.60;1.40;;;21.90;92.00;;;;;;4992587;28;20510;-71
2022/09/14 05:46:45;;;;;;;2.47;1.60;;;21.90;92.00;;;;;;4960212;28;20444;-71
2022/09/14 05:49:11;;;;;;;3.73;2.23;;;21.90;92.00;;;;;;4960561;28;20467;-72
2022/09/14 05:51:37;;;;;;;2.47;2.00;;;21.90;92.00;;;;;;4992871;28;20216;-71
2022/09/14 05:54:26;;;;;;;4.67;2.10;;;21.90;92.00;;;;;;4972219;28;20453;-71
2022/09/14 05:56:54;;;;;;;2.40;1.17;;;21.90;92.00;;;;;;4992699;28;20503;-72
2022/09/14 05:59:20;;;;;;;4.60;2.00;;;21.90;92.00;;;;;;4957143;28;20454;-71
2022/09/14 06:01:47;;;;;;;3.27;1.30;;;21.90;92.00;;;;;;4982548;28;20876;-71
2022/09/14 06:04:12;;;;;;;3.67;2.00;;;21.80;92.00;;;;;;4975870;28;20447;-71
2022/09/14 06:06:39;;;;;;;3.07;1.67;;;21.90;92.10;;;;;;4974494;28;20451;-71
2022/09/14 06:09:04;;;;;;;3.90;1.60;;;21.80;92.00;;;;;;4975667;28;20188;-71
2022/09/14 06:11:35;;;;;;;2.00;1.57;;;21.80;92.00;;;;;;4975562;28;20443;-71
2022/09/14 06:14:04;;;;;;;6.07;1.67;;;21.80;92.00;;;;;;4959493;28;20562;-71
2022/09/14 06:16:30;;;;;;;2.87;2.10;;;21.80;92.00;;;;;;4975654;28;20440;-71
2022/09/14 06:19:00;;;;;;;3.63;1.60;;;21.80;92.00;;;;;;4992904;28;20663;-71
2022/09/14 06:21:31;;;;;;;3.23;1.90;;;21.80;92.00;;;;;;4993673;28;20830;-71
2022/09/14 06:23:57;;;;;;;2.50;1.70;;;21.80;92.00;;;;;;4975475;28;20451;-71
2022/09/14 06:26:29;;;;;;;2.60;1.30;;;21.70;92.00;;;;;;4976746;28;20447;-71
2022/09/14 06:28:57;;;;;;;2.97;1.67;;;21.70;92.00;;;;;;4944760;28;20940;-71
2022/09/14 06:31:24;;;;;;;5.37;1.70;;;21.70;92.00;;;;;;4960274;28;20423;-71
2022/09/14 06:33:50;;;;;;;9.23;1.67;;;21.70;91.90;;;;;;4976334;28;20428;-71
2022/09/14 06:36:21;;;;;;;3.40;1.60;;;21.70;91.90;;;;;;4976166;28;20416;-71
2022/09/14 06:39:19;;;;;;;2.47;1.60;;;21.70;92.00;;;;;;4938258;28;20479;-71
2022/09/14 06:41:45;;;;;;;2.20;1.40;;;21.70;92.00;;;;;;4976341;28;20436;-71
2022/09/14 06:44:18;;;;;;;3.10;1.60;;;21.70;92.10;;;;;;4976056;28;20510;-71
2022/09/14 06:46:46;;;;;;;3.10;1.70;;;21.70;92.10;;;;;;4993455;28;20463;-71
2022/09/14 06:49:19;;;;;;;5.07;2.00;;;21.70;92.10;;;;;;4959863;28;20487;-71
2022/09/14 06:51:46;;;;;;;3.43;2.23;;;21.60;92.00;;;;;;4976081;28;20441;-72
2022/09/14 06:54:14;;;;;;;3.20;1.50;;;21.60;92.00;;;;;;4976198;28;20444;-71
2022/09/14 06:56:42;;;;;;;2.90;1.53;;;21.60;92.00;;;;;;4960026;28;20920;-72
2022/09/14 06:59:09;;;;;;;2.93;1.60;;;21.60;92.00;;;;;;4960376;28;21026;-72
2022/09/14 07:01:41;;;;;;;2.53;1.50;;;21.60;92.00;;;;;;4996999;28;20399;-71
2022/09/14 07:04:10;;;;;;;4.13;1.90;;;21.60;92.00;;;;;;4979504;28;20795;-71
2022/09/14 07:06:45;;;;;;;4.13;1.80;;;21.60;92.10;;;;;;4979754;28;20411;-71
2022/09/14 07:09:12;;;;;;;2.60;1.87;;;21.60;92.10;;;;;;4962870;28;20474;-70
2022/09/14 07:11:39;;;;;;;2.80;1.50;;;21.60;92.30;;;;;;4996612;28;20908;-72
2022/09/14 07:14:05;;;;;;;4.60;2.10;;;21.50;92.00;;;;;;4994124;28;20454;-72
2022/09/14 07:16:37;;;;;;;2.20;1.80;;;21.50;92.10;;;;;;4993642;23;20408;-71
2022/09/14 07:19:06;;;;;;;2.60;1.73;;;21.50;92.10;;;;;;4960046;28;20473;-71
2022/09/14 07:21:37;;;;;;;1.97;1.60;;;21.50;92.10;;;;;;4977356;28;20439;-71
2022/09/14 07:24:07;;;;;;;2.37;1.73;;;21.50;92.10;;;;;;4969242;28;20444;-72
2022/09/14 07:26:42;;;;;;;3.90;2.33;;;21.50;92.10;;;;;;4961762;28;20532;-71
2022/09/14 07:29:18;;;;;;;2.47;1.90;;;21.50;92.10;;;;;;4977307;28;20510;-71
2022/09/14 07:31:46;;;;;;;3.23;1.70;;;21.50;92.20;;;;;;4958242;28;21040;-71
2022/09/14 07:34:13;;;;;;;2.43;1.80;;;21.50;92.20;;;;;;4959975;28;20836;-71
2022/09/14 07:36:44;;;;;;;4.80;1.80;;;21.50;92.20;;;;;;4961241;28;20431;-71
2022/09/14 07:39:16;;;;;;;4.20;1.83;;;21.40;92.10;;;;;;4941554;28;20535;-71
2022/09/14 07:41:44;;;;;;;2.70;2.07;;;21.40;92.10;;;;;;4957548;28;20567;-71
2022/09/14 07:44:14;;;;;;;1.73;1.60;;;21.40;92.10;;;;;;4970393;28;20463;-71
2022/09/14 07:46:44;;;;;;;4.70;2.20;;;21.40;92.20;;;;;;4976568;28;20434;-71
2022/09/14 07:49:16;;;;;;;1.43;1.33;;;21.40;92.20;;;;;;4961238;28;20470;-71
2022/09/14 07:51:42;;;;;;;2.60;1.60;;;21.40;92.20;;;;;;4977020;28;20423;-71
2022/09/14 07:54:12;;;;;;;2.60;1.73;;;21.40;92.20;;;;;;4994125;28;21052;-71
2022/09/14 07:56:42;;;;;;;4.70;2.23;;;21.30;92.20;;;;;;4986594;28;20874;-70
2022/09/14 07:59:15;;;;;;;3.50;1.50;;;21.30;92.20;;;;;;4976456;28;20887;-71
2022/09/14 08:01:45;;;;;;;2.57;1.63;;;21.30;92.20;;;;;;4976900;28;20443;-71
2022/09/14 08:04:11;;;;;;;2.57;1.70;;;21.30;92.30;;;;;;4993703;28;20455;-71
2022/09/14 08:06:39;;;;;;;2.63;1.43;;;21.30;92.30;;;;;;4993533;28;20470;-71
2022/09/14 08:09:07;;;;;;;2.00;1.80;;;21.30;92.30;;;;;;4976337;28;20434;-71
2022/09/14 08:11:36;;;;;;;3.00;2.00;;;21.30;92.30;;;;;;4993258;28;20939;-71
2022/09/14 08:14:12;;;;;;;2.97;1.87;;;21.30;92.30;;;;;;4994085;28;20455;-71
2022/09/14 08:16:39;;;;;;;2.57;1.47;;;21.30;92.40;;;;;;4993844;28;20790;-71
2022/09/14 08:19:10;;;;;;;4.70;1.87;;;21.30;92.40;;;;;;4976503;28;20473;-71
2022/09/14 08:21:36;;;;;;;2.67;2.17;;;21.30;92.40;;;;;;4976622;28;20443;-71
2022/09/14 08:24:03;;;;;;;2.20;1.80;;;21.20;92.40;;;;;;4976764;28;20443;-71
2022/09/14 08:26:30;;;;;;;2.83;2.00;;;21.20;92.40;;;;;;4993660;28;20443;-71
2022/09/14 08:28:58;;;;;;;2.77;1.97;;;21.20;92.40;;;;;;4993926;28;20835;-71
2022/09/14 08:31:28;;;;;;;3.03;2.00;;;21.20;92.40;;;;;;4976491;28;20449;-71
2022/09/14 08:33:57;;;;;;;1.90;1.73;;;21.20;92.40;;;;;;4976491;28;20479;-71
2022/09/14 08:36:28;;;;;;;4.50;2.30;;;21.20;92.50;;;;;;4976470;28;20779;-71
2022/09/14 08:38:54;;;;;;;2.30;2.00;;;21.20;92.60;;;;;;4993300;28;20463;-71
2022/09/14 08:41:50;;;;;;;2.80;1.80;;;21.20;92.60;;;;;;4976138;28;20438;-71
2022/09/14 08:44:39;;;;;;;2.37;1.80;;;21.20;92.60;;;;;;4959945;28;20325;-71
2022/09/14 08:47:15;;;;;;;3.67;1.93;;;21.20;92.60;;;;;;4976111;28;20426;-71
2022/09/14 08:49:56;;;;;;;3.40;2.17;;;21.10;92.60;;;;;;4976412;28;20509;-71
2022/09/14 08:52:42;;;;;;;2.60;2.33;;;21.10;92.60;;;;;;4992170;28;20439;-70
2022/09/14 08:55:36;;;;;;;2.43;1.97;;;21.10;92.70;;;;;;4993397;28;20475;-70
2022/09/14 08:58:07;;;;;;;2.00;1.80;;;21.10;92.70;;;;;;4989165;28;21007;-71
2022/09/14 09:00:37;;;;;;;4.37;2.10;;;21.10;92.60;;;;;;4975159;28;20808;-70
2022/09/14 09:03:23;;;;;;;2.63;2.27;;;21.10;92.60;;;;;;4993369;28;20519;-71
2022/09/14 09:06:02;;;;;;;2.93;2.10;;;21.10;92.70;;;;;;4963155;28;20460;-71
2022/09/14 09:08:48;;;;;;;5.40;2.10;;;21.10;92.70;;;;;;4985828;28;20454;-71
2022/09/14 09:11:18;;;;;;;3.13;2.43;;;21.10;92.80;;;;;;4976940;28;20945;-71
2022/09/14 09:13:49;;;;;;;2.23;2.03;;;21.10;92.80;;;;;;4991876;28;20791;-72
2022/09/14 09:16:19;;;;;;;4.27;2.50;;;21.00;92.70;;;;;;4975927;28;20520;-71
2022/09/14 09:19:06;;;;;;;4.90;2.50;;;21.00;92.80;;;;;;4974784;28;20914;-71
2022/09/14 09:21:42;;;;;;;3.03;2.40;;;21.00;92.80;;;;;;4972626;28;20469;-71
2022/09/14 09:24:32;;;;;;;2.60;2.27;;;21.00;92.80;;;;;;4985932;28;20442;-70
2022/09/14 09:26:59;;;;;;;2.30;1.90;;;21.00;92.80;;;;;;4971030;28;20440;-71
2022/09/14 09:29:28;;;;;;;2.40;2.20;;;21.00;92.80;;;;;;4978235;28;20840;-70
2022/09/14 09:32:22;;;;;;;2.83;2.20;;;21.00;92.80;;;;;;4960711;28;20879;-69
2022/09/14 09:35:19;;;;;;;2.23;2.03;;;21.00;92.80;;;;;;4972657;28;20451;-71
2022/09/14 09:37:57;;;;;;;3.20;2.50;;;21.00;92.80;;;;;;4975432;28;20537;-70
2022/09/14 09:40:46;;;;;;;3.70;2.70;;;21.00;92.80;;;;;;4974732;28;20456;-74
2022/09/14 09:43:21;;;;;;;2.23;2.00;;;21.00;92.90;;;;;;4951032;28;20473;-72
2022/09/14 09:46:08;;;;;;;3.77;2.37;;;20.90;92.90;;;;;;4978877;28;20558;-70
2022/09/14 09:48:37;;;;;;;5.80;2.00;;;20.90;92.90;;;;;;4992744;28;20855;-71
2022/09/14 09:51:17;;;;;;;3.30;2.10;;;20.90;92.80;;;;;;4992907;28;20423;-74
2022/09/14 09:53:54;;;;;;;2.47;2.13;;;20.90;92.80;;;;;;4975853;28;20845;-74
2022/09/14 09:56:39;;;;;;;2.07;1.80;;;20.90;92.90;;;;;;4954486;28;20548;-74
2022/09/14 09:59:43;;;;;;;3.43;1.97;;;20.90;92.90;;;;;;4951489;28;20893;-73
2022/09/14 10:02:32;;;;;;;3.10;2.10;;;20.90;92.90;;;;;;4951951;29;20546;-73
2022/09/14 10:05:07;;;;;;;2.60;1.93;;;20.90;92.90;;;;;;4968420;28;20445;-72
2022/09/14 10:07:38;;;;;;;2.10;1.90;;;20.90;92.90;;;;;;4955645;28;20471;-73
2022/09/14 10:10:10;;;;;;;2.90;2.10;;;20.90;92.90;;;;;;4964007;28;20518;-74
2022/09/14 10:12:48;;;;;;;1.90;1.70;;;20.80;92.80;;;;;;4940483;28;20423;-74
2022/09/14 10:15:25;;;;;;;2.63;1.87;;;20.90;92.90;;;;;;4979011;28;20485;-71
2022/09/14 10:18:07;;;;;;;3.30;2.00;;;20.90;93.00;;;;;;4986930;28;20483;-71
2022/09/14 10:20:36;;;;;;;2.93;1.87;;;20.90;93.00;;;;;;4971910;28;20585;-71
2022/09/14 10:23:18;;;;;;;3.07;2.20;;;20.90;93.00;;;;;;4971646;28;20419;-72
2022/09/14 10:25:52;;;;;;;2.57;2.00;;;20.90;93.00;;;;;;4973640;28;20446;-72
2022/09/14 10:28:18;;;;;;;2.63;1.97;;;20.80;93.00;;;;;;4968372;28;20441;-72
2022/09/14 10:31:13;;;;;;;2.37;2.10;;;20.80;93.00;;;;;;4992711;28;20442;-72
2022/09/14 10:33:39;;;;;;;2.43;1.70;;;20.80;93.00;;;;;;4973694;28;20408;-72
2022/09/14 10:36:12;;;;;;;3.73;2.13;;;20.80;93.00;;;;;;4981859;28;20426;-72
2022/09/14 10:38:44;;;;;;;3.30;2.10;;;20.80;93.10;;;;;;4963203;28;21118;-71
2022/09/14 10:41:26;;;;;;;3.60;2.27;;;20.80;93.10;;;;;;4978676;28;20430;-71
2022/09/14 10:44:30;;;;;;;2.23;2.03;;;20.80;93.10;;;;;;4978867;28;20438;-71
2022/09/14 10:47:03;;;;;;;1.73;1.60;;;20.80;93.10;;;;;;4962047;28;20417;-71
2022/09/14 10:49:50;;;;;;;2.10;1.93;;;20.80;93.10;;;;;;4978928;28;20914;-71
2022/09/14 10:52:39;;;;;;;3.13;1.90;;;20.80;93.10;;;;;;4978941;28;20426;-72
2022/09/14 10:55:33;;;;;;;1.73;1.60;;;20.80;93.10;;;;;;4978907;28;20442;-72
2022/09/14 10:58:30;;;;;;;2.10;1.90;;;20.80;93.10;;;;;;4978598;28;20468;-71
2022/09/14 11:01:15;;;;;;;4.73;1.90;;;20.70;93.10;;;;;;4987505;28;20415;-70
2022/09/14 11:04:12;;;;;;;2.67;1.90;;;20.70;93.10;;;;;;4981609;28;20453;-71
2022/09/14 11:06:54;;;;;;;1.60;1.50;;;20.70;93.10;;;;;;4981938;28;20552;-71
2022/09/14 11:09:37;;;;;;;1.83;1.70;;;20.70;93.20;;;;;;4981673;28;20440;-71
2022/09/14 11:12:23;;;;;;;1.77;1.40;;;20.70;93.20;;;;;;4989922;28;20452;-71
2022/09/14 11:14:55;;;;;;;2.10;1.90;;;20.70;93.30;;;;;;4995421;28;20984;-71
2022/09/14 11:17:49;;;;;;;4.03;2.13;;;20.70;93.30;;;;;;4995312;28;20474;-72
2022/09/14 11:20:18;;;;;;;1.80;1.70;;;20.70;93.20;;;;;;4961752;28;20406;-71
2022/09/14 11:23:23;;;;;;;2.03;1.70;;;20.70;93.20;;;;;;4977647;28;20460;-72
2022/09/14 11:26:30;;;;;;;2.57;2.03;;;20.70;93.30;;;;;;4961574;28;20475;-72
2022/09/14 11:29:22;;;;;;;2.20;1.90;;;20.70;93.30;;;;;;4959851;28;20421;-72
2022/09/14 11:32:02;;;;;;;2.30;1.80;;;20.70;93.40;;;;;;4989755;28;20500;-72
2022/09/14 11:34:39;;;;;;;2.43;1.70;;;20.70;93.30;;;;;;4961949;28;20434;-71
2022/09/14 11:37:13;;;;;;;2.20;2.00;;;20.60;93.30;;;;;;4993441;28;20448;-71
2022/09/14 11:39:50;;;;;;;2.90;2.03;;;20.70;93.40;;;;;;4977612;28;20477;-71
2022/09/14 11:42:19;;;;;;;2.00;1.73;;;20.60;93.40;;;;;;4994730;28;20419;-71
2022/09/14 11:44:56;;;;;;;2.53;2.30;;;20.60;93.40;;;;;;4965240;28;20978;-71
2022/09/14 11:47:25;;;;;;;2.20;2.00;;;20.60;93.40;;;;;;4957916;28;20460;-71
2022/09/14 11:50:06;;;;;;;3.10;2.20;;;20.60;93.40;;;;;;4942026;28;20522;-71
2022/09/14 11:52:33;;;;;;;2.33;2.07;;;20.60;93.40;;;;;;4974044;28;20598;-71
2022/09/14 11:55:00;;;;;;;3.27;2.27;;;20.60;93.50;;;;;;4977156;28;20453;-71
2022/09/14 11:57:32;;;;;;;3.70;2.40;;;20.60;93.50;;;;;;4977255;28;20441;-71
2022/09/14 12:00:29;;;;;;;2.70;2.20;;;20.60;93.50;;;;;;4994037;28;20449;-71
2022/09/14 12:03:04;;;;;;;3.20;2.33;;;20.60;93.50;;;;;;4994205;28;20534;-70
2022/09/14 12:05:35;;;;;;;3.00;2.10;;;20.60;93.70;;;;;;4994265;28;20435;-71
2022/09/14 12:08:26;;;;;;;3.67;2.27;;;20.60;93.50;;;;;;4976458;28;20430;-70
2022/09/14 12:11:22;;;;;;;4.80;1.90;;;20.60;93.50;;;;;;4994243;28;20434;-71
2022/09/14 12:14:26;;;;;;;2.43;2.23;;;20.60;93.50;;;;;;4991936;28;20441;-71
2022/09/14 12:17:24;;;;;;;3.03;2.60;;;20.60;93.50;;;;;;4960588;28;20423;-71
2022/09/14 12:19:56;;;;;;;1.70;1.60;;;20.60;93.50;;;;;;4976576;28;20455;-71
2022/09/14 12:22:36;;;;;;;2.40;2.10;;;20.60;93.60;;;;;;4941510;28;20511;-71
2022/09/14 12:25:08;;;;;;;2.97;1.97;;;20.60;93.60;;;;;;4941231;28;21093;-72
2022/09/14 12:27:38;;;;;;;2.03;1.83;;;20.60;93.60;;;;;;4973438;28;20396;-71
2022/09/14 12:30:34;;;;;;;3.67;2.17;;;20.60;93.60;;;;;;4972719;28;20495;-71
2022/09/14 12:33:31;;;;;;;3.93;2.30;;;20.60;93.60;;;;;;4971947;28;20541;-71
2022/09/14 12:36:03;;;;;;;2.07;1.90;;;20.50;93.60;;;;;;4941184;28;20440;-71
2022/09/14 12:39:00;;;;;;;3.57;2.80;;;20.60;93.70;;;;;;4959872;28;20486;-71
2022/09/14 12:41:28;;;;;;;2.37;2.00;;;20.50;93.60;;;;;;4956765;28;20464;-71
2022/09/14 12:43:54;;;;;;;2.00;1.80;;;20.60;93.70;;;;;;4978646;28;20417;-71
2022/09/14 12:46:20;;;;;;;2.37;2.17;;;20.50;93.70;;;;;;4994153;28;20454;-71
2022/09/14 12:48:54;;;;;;;2.03;1.83;;;20.50;93.70;;;;;;4977975;28;20443;-71
2022/09/14 12:51:32;;;;;;;2.20;2.00;;;20.50;93.70;;;;;;4971832;28;20433;-71
2022/09/14 12:54:08;;;;;;;3.17;2.03;;;20.50;93.70;;;;;;4969609;28;20454;-71
2022/09/14 12:56:45;;;;;;;2.17;1.97;;;20.50;93.70;;;;;;4971154;28;20466;-71
2022/09/14 12:59:44;;;;;;;2.90;2.27;;;20.50;93.70;;;;;;4988686;28;20466;-71
2022/09/14 13:02:53;;;;;;;3.87;2.13;;;20.50;93.80;;;;;;4973229;28;20432;-71
2022/09/14 13:05:26;;;;;;;2.90;2.00;;;20.50;93.90;;;;;;4990977;28;20444;-71
2022/09/14 13:07:53;;;;;;;3.40;2.07;;;20.40;93.90;;;;;;4973320;28;20463;-71
2022/09/14 13:10:28;;;;;;;2.53;2.20;;;20.40;93.90;;;;;;4991072;28;20455;-71
2022/09/14 13:13:00;;;;;;;1.63;1.53;;;20.50;94.00;;;;;;4959438;28;20517;-71
2022/09/14 13:15:32;;;;;;;2.40;2.20;;;20.40;94.00;;;;;;4971132;28;20435;-71
2022/09/14 13:18:16;;;;;;;1.97;1.80;;;20.40;94.00;;;;;;4937833;28;20488;-71
2022/09/14 13:20:53;;;;;;;3.13;1.70;;;20.40;94.00;;;;;;4953895;28;20844;-71
2022/09/14 13:23:27;;;;;;;1.90;1.70;;;20.40;94.00;;;;;;4970664;28;20411;-71
2022/09/14 13:25:53;;;;;;;2.00;1.70;;;20.40;94.10;;;;;;4953595;28;20515;-72
2022/09/14 13:28:20;;;;;;;3.10;2.20;;;20.40;94.20;;;;;;4970856;28;20498;-71